Novo Milenio — CUOW5 — position and weather

sailwx.info

Track history (hours):
 
Tides and Currents Weather Stations Pressure Air Temp Water Temp Dewpoint Dewpoint Depression Visibility Wind Speed Wind Dir Waves Ship Positions

Novo Milenio

Last reported at 2017-Oct-20 16:00 UTC. Time now 2017-Oct-20 16:30 UTC.
Position N 38°48' W 009°48'.

Length 15 m.

Type: Fishing. MMSI: 263500321.

Date/timePositionNaut miles runAvg speedWind from/ knotsBaromVisibWave heightAir tempDewpointWater temp
2017-Oct-20 16:00N 38°48' W 009°48'1 1.5
2017-Oct-20 15:30N 38°48' W 009°48'0 0.8
2017-Oct-20 15:00N 38°47' W 009°48'0 0.7
2017-Oct-20 14:30N 38°48' W 009°47'1 0.8
2017-Oct-20 13:30N 38°48' W 009°46'0 0.8
2017-Oct-20 13:00N 38°48' W 009°46'1 1.3
2017-Oct-20 12:30N 38°48' W 009°45'0 0.6
2017-Oct-20 12:00N 38°48' W 009°45'0 0.2
2017-Oct-20 11:30N 38°48' W 009°45'0 0.8
2017-Oct-20 11:00N 38°48' W 009°45'0 0.5
2017-Oct-20 10:30N 38°48' W 009°45'0 0.8
2017-Oct-20 10:00N 38°48' W 009°44'0 0.6
2017-Oct-20 09:30N 38°48' W 009°44'0 0.8
2017-Oct-20 09:00N 38°48' W 009°43'0 0.6
2017-Oct-20 08:30N 38°49' W 009°43'0 0.7
2017-Oct-20 08:00N 38°49' W 009°43'0 0.5
2017-Oct-20 07:30N 38°49' W 009°43'0 0.5
2017-Oct-20 07:00N 38°49' W 009°44'0 0.2
2017-Oct-20 06:30N 38°49' W 009°44'0 0.7
2017-Oct-20 06:00N 38°49' W 009°43'0 0.6
2017-Oct-20 05:30N 38°49' W 009°44'1 1.1
2017-Oct-20 05:00N 38°49' W 009°43'3 5.1
2017-Oct-20 04:30N 38°48' W 009°46'2 3.9
2017-Oct-20 04:00N 38°49' W 009°48'4 7.9
2017-Oct-20 03:30N 38°52' W 009°45'4 7.6
2017-Oct-20 03:00N 38°56' W 009°43'4 7.5
2017-Oct-20 02:30N 38°59' W 009°40'4 7.5
2017-Oct-20 02:00N 39°02' W 009°38'4 7.4
2017-Oct-20 01:30N 39°05' W 009°35'4 7.1
2017-Oct-20 01:00N 39°08' W 009°32'4 7.2
2017-Oct-20 00:30N 39°11' W 009°30'4 7.4
2017-Oct-20 00:00N 39°14' W 009°28'8 0.3
2017-Oct-18 21:57N 39°16' W 009°38'4 7.4
2017-Oct-18 21:21N 39°14' W 009°43'4 7.5
2017-Oct-18 20:52N 39°13' W 009°47'20 3.8
2017-Oct-18 15:41N 39°06' W 010°11'0 0.2
2017-Oct-18 15:26N 39°06' W 010°11'0 0.4
2017-Oct-18 14:58N 39°06' W 010°11'0 0.1
2017-Oct-18 13:56N 39°06' W 010°11'0 0.7
2017-Oct-18 13:30N 39°06' W 010°12'0 0.1
2017-Oct-18 13:00N 39°06' W 010°12'0 0.0
2017-Oct-18 11:32N 39°06' W 010°12'0 0.4
2017-Oct-18 11:26N 39°06' W 010°12'0 0.2
2017-Oct-18 11:00N 39°06' W 010°11'0 0.1
2017-Oct-18 10:26N 39°06' W 010°11'1 0.1
2017-Oct-18 06:02N 39°05' W 010°11'0 0.6
2017-Oct-18 06:00N 39°05' W 010°11'0 0.1
2017-Oct-18 05:30N 39°05' W 010°11'0 0.6
2017-Oct-18 05:00N 39°05' W 010°11'1 0.7
2017-Oct-18 04:08N 39°06' W 010°12'0 0.9
2017-Oct-18 03:57N 39°06' W 010°12'0 0.3
2017-Oct-18 02:58N 39°06' W 010°11'0 0.4
2017-Oct-18 02:28N 39°06' W 010°11'0 0.6
2017-Oct-18 01:55N 39°05' W 010°11'0 0.3
2017-Oct-18 01:30N 39°06' W 010°11'0 0.4
2017-Oct-18 01:00N 39°06' W 010°12'0 0.4
2017-Oct-18 00:29N 39°06' W 010°12'0 0.4
2017-Oct-18 00:00N 39°06' W 010°12'0 0.2
2017-Oct-17 23:26N 39°06' W 010°12'0 0.0
2017-Oct-17 22:58N 39°06' W 010°12'0 0.0
2017-Oct-17 22:27N 39°06' W 010°12'0 0.1
2017-Oct-17 21:59N 39°06' W 010°12'0 0.1
2017-Oct-17 21:22N 39°06' W 010°12'1 0.1
2017-Oct-17 14:09N 39°06' W 010°14'0 0.1
2017-Oct-17 13:56N 39°06' W 010°14'0 0.2
2017-Oct-17 13:29N 39°06' W 010°13'0 0.1
2017-Oct-17 13:00N 39°06' W 010°13'1 2.6
2017-Oct-17 12:30N 39°06' W 010°12'0 0.2
2017-Oct-17 12:00N 39°06' W 010°12'0 0.7
2017-Oct-17 11:29N 39°06' W 010°11'0 0.7
2017-Oct-17 11:00N 39°06' W 010°11'0 0.3
2017-Oct-17 10:29N 39°06' W 010°11'0 0.4
2017-Oct-17 09:58N 39°06' W 010°12'0 0.2
2017-Oct-17 06:58N 39°05' W 010°11'0 0.3
2017-Oct-17 06:30N 39°05' W 010°11'0 0.1
2017-Oct-17 05:09N 39°06' W 010°11'0 0.2
2017-Oct-17 04:58N 39°06' W 010°11'2 1.0
2017-Oct-17 03:06N 39°06' W 010°13'16 6.7
2017-Oct-17 00:41N 39°12' W 009°54'1 7.6
2017-Oct-17 00:30N 39°12' W 009°52'7 7.7
2017-Oct-16 23:36N 39°15' W 009°44'2 7.9
2017-Oct-16 23:21N 39°15' W 009°41'3 7.7
2017-Oct-16 23:00N 39°16' W 009°38'4 7.6
2017-Oct-16 22:26N 39°18' W 009°33'  
2017-Oct-11 00:00N 37°31' W 010°35'4 8.1
2017-Oct-10 23:30N 37°28' W 010°37'4 8.2
2017-Oct-10 23:01N 37°24' W 010°39'4 8.1
2017-Oct-10 22:30N 37°20' W 010°42'4 7.8
2017-Oct-10 22:00N 37°17' W 010°44'4 7.6
2017-Oct-10 21:31N 37°14' W 010°46'4 7.4
2017-Oct-10 21:00N 37°10' W 010°49'4 7.6
2017-Oct-10 20:30N 37°07' W 010°51'4 7.9
2017-Oct-10 20:00N 37°04' W 010°54'4 8.0
2017-Oct-10 19:31N 37°00' W 010°56'4 8.0
2017-Oct-10 19:01N 36°57' W 010°59'4 7.6
2017-Oct-10 18:30N 36°54' W 011°01'4 7.5
2017-Oct-10 18:01N 36°50' W 011°03'6 8.0
2017-Oct-10 17:13N 36°45' W 011°07'  
Track history (hours):
 
Tides and Currents Weather Stations Pressure Air Temp Water Temp Dewpoint Dewpoint Depression Visibility Wind Speed Wind Dir Waves Ship Positions

Novo Milenio

Last reported at 2017-Oct-20 16:00 UTC. Time now 2017-Oct-20 16:30 UTC.
Position N 38°48' W 009°48'.

Length 15 m.

Type: Fishing. MMSI: 263500321.

Date/timePositionNaut miles runAvg speedWind from/ knotsBaromVisibWave heightAir tempDewpointWater temp
2017-Oct-20 16:00N 38°48' W 009°48'1 1.5
2017-Oct-20 15:30N 38°48' W 009°48'0 0.8
2017-Oct-20 15:00N 38°47' W 009°48'0 0.7
2017-Oct-20 14:30N 38°48' W 009°47'1 0.8
2017-Oct-20 13:30N 38°48' W 009°46'0 0.8
2017-Oct-20 13:00N 38°48' W 009°46'1 1.3
2017-Oct-20 12:30N 38°48' W 009°45'0 0.6
2017-Oct-20 12:00N 38°48' W 009°45'0 0.2
2017-Oct-20 11:30N 38°48' W 009°45'0 0.8
2017-Oct-20 11:00N 38°48' W 009°45'0 0.5
2017-Oct-20 10:30N 38°48' W 009°45'0 0.8
2017-Oct-20 10:00N 38°48' W 009°44'0 0.6
2017-Oct-20 09:30N 38°48' W 009°44'0 0.8
2017-Oct-20 09:00N 38°48' W 009°43'0 0.6
2017-Oct-20 08:30N 38°49' W 009°43'0 0.7
2017-Oct-20 08:00N 38°49' W 009°43'0 0.5
2017-Oct-20 07:30N 38°49' W 009°43'0 0.5
2017-Oct-20 07:00N 38°49' W 009°44'0 0.2
2017-Oct-20 06:30N 38°49' W 009°44'0 0.7
2017-Oct-20 06:00N 38°49' W 009°43'0 0.6
2017-Oct-20 05:30N 38°49' W 009°44'1 1.1
2017-Oct-20 05:00N 38°49' W 009°43'3 5.1
2017-Oct-20 04:30N 38°48' W 009°46'2 3.9
2017-Oct-20 04:00N 38°49' W 009°48'4 7.9
2017-Oct-20 03:30N 38°52' W 009°45'4 7.6
2017-Oct-20 03:00N 38°56' W 009°43'4 7.5
2017-Oct-20 02:30N 38°59' W 009°40'4 7.5
2017-Oct-20 02:00N 39°02' W 009°38'4 7.4
2017-Oct-20 01:30N 39°05' W 009°35'4 7.1
2017-Oct-20 01:00N 39°08' W 009°32'4 7.2
2017-Oct-20 00:30N 39°11' W 009°30'4 7.4
2017-Oct-20 00:00N 39°14' W 009°28'8 0.3
2017-Oct-18 21:57N 39°16' W 009°38'4 7.4
2017-Oct-18 21:21N 39°14' W 009°43'4 7.5
2017-Oct-18 20:52N 39°13' W 009°47'20 3.8
2017-Oct-18 15:41N 39°06' W 010°11'0 0.2
2017-Oct-18 15:26N 39°06' W 010°11'0 0.4
2017-Oct-18 14:58N 39°06' W 010°11'0 0.1
2017-Oct-18 13:56N 39°06' W 010°11'0 0.7
2017-Oct-18 13:30N 39°06' W 010°12'0 0.1
2017-Oct-18 13:00N 39°06' W 010°12'0 0.0
2017-Oct-18 11:32N 39°06' W 010°12'0 0.4
2017-Oct-18 11:26N 39°06' W 010°12'0 0.2
2017-Oct-18 11:00N 39°06' W 010°11'0 0.1
2017-Oct-18 10:26N 39°06' W 010°11'1 0.1
2017-Oct-18 06:02N 39°05' W 010°11'0 0.6
2017-Oct-18 06:00N 39°05' W 010°11'0 0.1
2017-Oct-18 05:30N 39°05' W 010°11'0 0.6
2017-Oct-18 05:00N 39°05' W 010°11'1 0.7
2017-Oct-18 04:08N 39°06' W 010°12'0 0.9
2017-Oct-18 03:57N 39°06' W 010°12'0 0.3
2017-Oct-18 02:58N 39°06' W 010°11'0 0.4
2017-Oct-18 02:28N 39°06' W 010°11'0 0.6
2017-Oct-18 01:55N 39°05' W 010°11'0 0.3
2017-Oct-18 01:30N 39°06' W 010°11'0 0.4
2017-Oct-18 01:00N 39°06' W 010°12'0 0.4
2017-Oct-18 00:29N 39°06' W 010°12'0 0.4
2017-Oct-18 00:00N 39°06' W 010°12'0 0.2
2017-Oct-17 23:26N 39°06' W 010°12'0 0.0
2017-Oct-17 22:58N 39°06' W 010°12'0 0.0
2017-Oct-17 22:27N 39°06' W 010°12'0 0.1
2017-Oct-17 21:59N 39°06' W 010°12'0 0.1
2017-Oct-17 21:22N 39°06' W 010°12'1 0.1
2017-Oct-17 14:09N 39°06' W 010°14'0 0.1
2017-Oct-17 13:56N 39°06' W 010°14'0 0.2
2017-Oct-17 13:29N 39°06' W 010°13'0 0.1
2017-Oct-17 13:00N 39°06' W 010°13'1 2.6
2017-Oct-17 12:30N 39°06' W 010°12'0 0.2
2017-Oct-17 12:00N 39°06' W 010°12'0 0.7
2017-Oct-17 11:29N 39°06' W 010°11'0 0.7
2017-Oct-17 11:00N 39°06' W 010°11'0 0.3
2017-Oct-17 10:29N 39°06' W 010°11'0 0.4
2017-Oct-17 09:58N 39°06' W 010°12'0 0.2
2017-Oct-17 06:58N 39°05' W 010°11'0 0.3
2017-Oct-17 06:30N 39°05' W 010°11'0 0.1
2017-Oct-17 05:09N 39°06' W 010°11'0 0.2
2017-Oct-17 04:58N 39°06' W 010°11'2 1.0
2017-Oct-17 03:06N 39°06' W 010°13'16 6.7
2017-Oct-17 00:41N 39°12' W 009°54'1 7.6
2017-Oct-17 00:30N 39°12' W 009°52'7 7.7
2017-Oct-16 23:36N 39°15' W 009°44'2 7.9
2017-Oct-16 23:21N 39°15' W 009°41'3 7.7
2017-Oct-16 23:00N 39°16' W 009°38'4 7.6
2017-Oct-16 22:26N 39°18' W 009°33'  
2017-Oct-11 00:00N 37°31' W 010°35'4 8.1
2017-Oct-10 23:30N 37°28' W 010°37'4 8.2
2017-Oct-10 23:01N 37°24' W 010°39'4 8.1
2017-Oct-10 22:30N 37°20' W 010°42'4 7.8
2017-Oct-10 22:00N 37°17' W 010°44'4 7.6
2017-Oct-10 21:31N 37°14' W 010°46'4 7.4
2017-Oct-10 21:00N 37°10' W 010°49'4 7.6
2017-Oct-10 20:30N 37°07' W 010°51'4 7.9
2017-Oct-10 20:00N 37°04' W 010°54'4 8.0
2017-Oct-10 19:31N 37°00' W 010°56'4 8.0
2017-Oct-10 19:01N 36°57' W 010°59'4 7.6
2017-Oct-10 18:30N 36°54' W 011°01'4 7.5
2017-Oct-10 18:01N 36°50' W 011°03'6 8.0
2017-Oct-10 17:13N 36°45' W 011°07'  

Dump ship's entire track history